sensor_id;sensor_type;location;lat;lon;timestamp;pressure;altitude;pressure_sealevel;temperature;humidity
77590;BME280;66746;51.328;12.332;2023-02-23T00:01:55;100080.25;;;7.75;86.18
77590;BME280;66746;51.328;12.332;2023-02-23T00:04:21;100081.84;;;7.82;86.17
77590;BME280;66746;51.328;12.332;2023-02-23T00:06:46;100087.13;;;7.85;85.71
77590;BME280;66746;51.328;12.332;2023-02-23T00:09:12;100073.81;;;7.81;85.78
77590;BME280;66746;51.328;12.332;2023-02-23T00:11:38;100078.19;;;7.83;85.84
77590;BME280;66746;51.328;12.332;2023-02-23T00:14:03;100081.75;;;7.85;85.11
77590;BME280;66746;51.328;12.332;2023-02-23T00:16:28;100078.19;;;7.83;85.59
77590;BME280;66746;51.328;12.332;2023-02-23T00:18:56;100080.88;;;7.85;85.27
77590;BME280;66746;51.328;12.332;2023-02-23T00:21:24;100078.19;;;7.83;85.32
77590;BME280;66746;51.328;12.332;2023-02-23T00:23:51;100074.59;;;7.84;84.99
77590;BME280;66746;51.328;12.332;2023-02-23T00:26:19;100077.28;;;7.84;84.96
77590;BME280;66746;51.328;12.332;2023-02-23T00:28:44;100072.81;;;7.83;85.19
77590;BME280;66746;51.328;12.332;2023-02-23T00:31:10;100065.72;;;7.81;85.14
77590;BME280;66746;51.328;12.332;2023-02-23T00:33:35;100069.28;;;7.81;85.78
77590;BME280;66746;51.328;12.332;2023-02-23T00:36:05;100071.13;;;7.79;85.70
77590;BME280;66746;51.328;12.332;2023-02-23T00:38:31;100080.19;;;7.78;86.52
77590;BME280;66746;51.328;12.332;2023-02-23T00:40:56;100078.38;;;7.77;85.43
77590;BME280;66746;51.328;12.332;2023-02-23T00:43:23;100081.19;;;7.74;85.99
77590;BME280;66746;51.328;12.332;2023-02-23T00:45:48;100076.59;;;7.78;85.50
77590;BME280;66746;51.328;12.332;2023-02-23T00:48:14;100076.63;;;7.76;86.23
77590;BME280;66746;51.328;12.332;2023-02-23T00:50:39;100075.69;;;7.77;86.02
77590;BME280;66746;51.328;12.332;2023-02-23T00:53:04;100072.22;;;7.74;85.98
77590;BME280;66746;51.328;12.332;2023-02-23T00:55:29;100077.59;;;7.74;85.36
77590;BME280;66746;51.328;12.332;2023-02-23T00:57:55;100086.59;;;7.74;85.58
77590;BME280;66746;51.328;12.332;2023-02-23T01:00:21;100081.16;;;7.76;85.40
77590;BME280;66746;51.328;12.332;2023-02-23T01:02:47;100088.31;;;7.77;85.21
77590;BME280;66746;51.328;12.332;2023-02-23T01:05:13;100090.19;;;7.75;85.84
77590;BME280;66746;51.328;12.332;2023-02-23T01:07:39;100070.59;;;7.68;85.91
77590;BME280;66746;51.328;12.332;2023-02-23T01:10:05;100086.72;;;7.71;85.59
77590;BME280;66746;51.328;12.332;2023-02-23T01:12:31;100085.94;;;7.66;86.37
77590;BME280;66746;51.328;12.332;2023-02-23T01:14:56;100088.59;;;7.68;85.33
77590;BME280;66746;51.328;12.332;2023-02-23T01:17:23;100089.59;;;7.65;86.55
77590;BME280;66746;51.328;12.332;2023-02-23T01:19:48;100087.00;;;7.61;86.79
77590;BME280;66746;51.328;12.332;2023-02-23T01:22:13;100087.09;;;7.58;86.46
77590;BME280;66746;51.328;12.332;2023-02-23T01:24:39;100086.25;;;7.56;86.12
77590;BME280;66746;51.328;12.332;2023-02-23T01:27:04;100075.63;;;7.51;87.07
77590;BME280;66746;51.328;12.332;2023-02-23T01:29:29;100081.09;;;7.48;86.85
77590;BME280;66746;51.328;12.332;2023-02-23T01:31:54;100073.88;;;7.49;86.67
77590;BME280;66746;51.328;12.332;2023-02-23T01:34:21;100072.97;;;7.50;86.15
77590;BME280;66746;51.328;12.332;2023-02-23T01:36:46;100071.13;;;7.50;86.42
77590;BME280;66746;51.328;12.332;2023-02-23T01:39:14;100075.63;;;7.51;86.27
77590;BME280;66746;51.328;12.332;2023-02-23T01:41:40;100061.38;;;7.46;86.05
77590;BME280;66746;51.328;12.332;2023-02-23T01:47:13;100069.50;;;7.45;86.47
77590;BME280;66746;51.328;12.332;2023-02-23T01:49:39;100058.91;;;7.39;86.29
77590;BME280;66746;51.328;12.332;2023-02-23T01:52:06;100066.09;;;7.40;86.66
77590;BME280;66746;51.328;12.332;2023-02-23T01:54:36;100055.31;;;7.38;86.27
77590;BME280;66746;51.328;12.332;2023-02-23T01:57:04;100054.47;;;7.36;86.74
77590;BME280;66746;51.328;12.332;2023-02-23T01:59:33;100050.97;;;7.34;86.74
77590;BME280;66746;51.328;12.332;2023-02-23T02:02:01;100048.44;;;7.28;86.85
77590;BME280;66746;51.328;12.332;2023-02-23T02:04:28;100042.09;;;7.29;86.76
77590;BME280;66746;51.328;12.332;2023-02-23T02:06:54;100049.28;;;7.30;86.75
77590;BME280;66746;51.328;12.332;2023-02-23T02:09:21;100043.97;;;7.27;87.18
77590;BME280;66746;51.328;12.332;2023-02-23T02:11:48;100048.44;;;7.28;87.11
77590;BME280;66746;51.328;12.332;2023-02-23T02:14:15;100031.59;;;7.20;86.74
77590;BME280;66746;51.328;12.332;2023-02-23T02:17:09;100043.13;;;7.25;86.40
77590;BME280;66746;51.328;12.332;2023-02-23T02:25:49;100027.06;;;7.21;87.02
77590;BME280;66746;51.328;12.332;2023-02-23T02:28:41;100033.34;;;7.21;87.01
77590;BME280;66746;51.328;12.332;2023-02-23T02:31:31;100037.84;;;7.21;87.26
77590;BME280;66746;51.328;12.332;2023-02-23T02:34:39;100034.38;;;7.17;86.94
77590;BME280;66746;51.328;12.332;2023-02-23T02:37:30;100037.16;;;7.14;87.22
77590;BME280;66746;51.328;12.332;2023-02-23T02:40:06;100036.44;;;7.07;86.63
77590;BME280;66746;51.328;12.332;2023-02-23T02:42:35;100034.72;;;7.05;86.87
77590;BME280;66746;51.328;12.332;2023-02-23T02:45:07;100041.97;;;7.03;87.33
77590;BME280;66746;51.328;12.332;2023-02-23T02:47:40;100035.66;;;7.04;87.69
77590;BME280;66746;51.328;12.332;2023-02-23T02:50:10;100033.88;;;7.03;87.26
77590;BME280;66746;51.328;12.332;2023-02-23T02:52:44;100027.69;;;6.99;87.52
77590;BME280;66746;51.328;12.332;2023-02-23T02:55:14;100029.47;;;7.00;87.21
77590;BME280;66746;51.328;12.332;2023-02-23T02:57:41;100029.44;;;7.02;87.51
77590;BME280;66746;51.328;12.332;2023-02-23T03:00:11;100028.59;;;7.00;88.00
77590;BME280;66746;51.328;12.332;2023-02-23T03:02:39;100019.66;;;6.98;88.31
77590;BME280;66746;51.328;12.332;2023-02-23T03:05:11;100019.56;;;7.01;87.91
77590;BME280;66746;51.328;12.332;2023-02-23T03:07:41;100019.50;;;7.04;88.10
77590;BME280;66746;51.328;12.332;2023-02-23T03:10:13;100012.41;;;7.00;87.21
77590;BME280;66746;51.328;12.332;2023-02-23T03:12:49;100023.91;;;7.06;87.53
77590;BME280;66746;51.328;12.332;2023-02-23T03:15:31;100025.63;;;7.09;88.01
77590;BME280;66746;51.328;12.332;2023-02-23T03:18:10;100025.53;;;7.12;87.96
77590;BME280;66746;51.328;12.332;2023-02-23T03:20:42;100028.31;;;7.09;87.57
77590;BME280;66746;51.328;12.332;2023-02-23T03:23:18;100032.78;;;7.10;87.48
77590;BME280;66746;51.328;12.332;2023-02-23T03:25:49;100029.13;;;7.12;87.49
77590;BME280;66746;51.328;12.332;2023-02-23T03:28:17;100037.16;;;7.14;87.29
77590;BME280;66746;51.328;12.332;2023-02-23T03:30:47;100032.75;;;7.11;87.24
77590;BME280;66746;51.328;12.332;2023-02-23T03:33:18;100023.75;;;7.11;87.21
77590;BME280;66746;51.328;12.332;2023-02-23T03:35:50;100034.53;;;7.12;87.72
77590;BME280;66746;51.328;12.332;2023-02-23T03:38:24;100030.84;;;7.15;88.00
77590;BME280;66746;51.328;12.332;2023-02-23T03:40:53;100028.13;;;7.15;87.54
77590;BME280;66746;51.328;12.332;2023-02-23T03:43:24;100036.28;;;7.13;87.52
77590;BME280;66746;51.328;12.332;2023-02-23T03:45:52;100039.88;;;7.14;87.45
77590;BME280;66746;51.328;12.332;2023-02-23T03:48:20;100044.25;;;7.18;87.66
77590;BME280;66746;51.328;12.332;2023-02-23T03:50:50;100045.22;;;7.15;87.52
77590;BME280;66746;51.328;12.332;2023-02-23T03:53:23;100035.22;;;7.19;87.65
77590;BME280;66746;51.328;12.332;2023-02-23T03:55:57;100036.16;;;7.18;87.49
77590;BME280;66746;51.328;12.332;2023-02-23T03:58:29;100038.75;;;7.21;87.36
77590;BME280;66746;51.328;12.332;2023-02-23T04:00:57;100038.75;;;7.21;87.35
77590;BME280;66746;51.328;12.332;2023-02-23T04:03:25;100041.44;;;7.21;87.72
77590;BME280;66746;51.328;12.332;2023-02-23T04:05:52;100037.91;;;7.19;87.27
77590;BME280;66746;51.328;12.332;2023-02-23T04:08:24;100038.75;;;7.21;87.26
77590;BME280;66746;51.328;12.332;2023-02-23T04:10:57;100040.59;;;7.19;87.48
77590;BME280;66746;51.328;12.332;2023-02-23T04:13:27;100050.50;;;7.18;87.28
77590;BME280;66746;51.328;12.332;2023-02-23T04:15:56;100047.84;;;7.17;87.55
77590;BME280;66746;51.328;12.332;2023-02-23T04:18:23;100049.72;;;7.15;87.51
77590;BME280;66746;51.328;12.332;2023-02-23T04:20:49;100052.41;;;7.15;87.07
77590;BME280;66746;51.328;12.332;2023-02-23T04:23:15;100039.03;;;7.12;87.39
77590;BME280;66746;51.328;12.332;2023-02-23T04:25:41;100033.81;;;7.06;87.88
77590;BME280;66746;51.328;12.332;2023-02-23T04:28:06;100048.97;;;7.10;87.96
77590;BME280;66746;51.328;12.332;2023-02-23T04:30:32;100055.19;;;7.12;87.81
77590;BME280;66746;51.328;12.332;2023-02-23T04:32:58;100054.25;;;7.14;87.90
77590;BME280;66746;51.328;12.332;2023-02-23T04:35:23;100049.72;;;7.15;87.90
77590;BME280;66746;51.328;12.332;2023-02-23T04:37:50;100053.25;;;7.17;87.74
77590;BME280;66746;51.328;12.332;2023-02-23T04:40:15;100055.94;;;7.17;87.75
77590;BME280;66746;51.328;12.332;2023-02-23T04:42:42;100029.31;;;7.06;88.38
77590;BME280;66746;51.328;12.332;2023-02-23T04:45:08;100060.44;;;7.18;88.60
77590;BME280;66746;51.328;12.332;2023-02-23T04:47:33;100048.75;;;7.18;88.36
77590;BME280;66746;51.328;12.332;2023-02-23T04:49:59;100051.31;;;7.22;88.21
77590;BME280;66746;51.328;12.332;2023-02-23T04:52:24;100052.19;;;7.23;88.67
77590;BME280;66746;51.328;12.332;2023-02-23T04:54:49;100044.06;;;7.24;88.71
77590;BME280;66746;51.328;12.332;2023-02-23T04:57:14;100055.72;;;7.25;88.55
77590;BME280;66746;51.328;12.332;2023-02-23T04:59:41;100054.84;;;7.24;88.31
77590;BME280;66746;51.328;12.332;2023-02-23T05:02:07;100047.78;;;7.20;88.34
77590;BME280;66746;51.328;12.332;2023-02-23T05:04:33;100045.81;;;7.25;88.44
77590;BME280;66746;51.328;12.332;2023-02-23T05:06:58;100058.41;;;7.26;88.77
77590;BME280;66746;51.328;12.332;2023-02-23T05:09:23;100032.47;;;7.21;88.29
77590;BME280;66746;51.328;12.332;2023-02-23T05:11:48;100037.69;;;7.27;88.30
77590;BME280;66746;51.328;12.332;2023-02-23T05:14:14;100048.47;;;7.27;88.72
77590;BME280;66746;51.328;12.332;2023-02-23T05:16:40;100040.44;;;7.25;88.72
77590;BME280;66746;51.328;12.332;2023-02-23T05:19:06;100053.06;;;7.23;88.25
77590;BME280;66746;51.328;12.332;2023-02-23T05:21:31;100047.78;;;7.20;88.77
77590;BME280;66746;51.328;12.332;2023-02-23T05:23:56;100041.59;;;7.17;89.73
77590;BME280;66746;51.328;12.332;2023-02-23T05:26:22;100041.72;;;7.12;89.29
77590;BME280;66746;51.328;12.332;2023-02-23T05:28:48;100046.28;;;7.10;88.78
77590;BME280;66746;51.328;12.332;2023-02-23T05:31:14;100040.09;;;7.05;89.19
77590;BME280;66746;51.328;12.332;2023-02-23T05:33:40;100034.72;;;7.05;89.45
77590;BME280;66746;51.328;12.332;2023-02-23T05:36:07;100039.28;;;7.03;89.61
77590;BME280;66746;51.328;12.332;2023-02-23T05:38:32;100033.09;;;6.99;89.18
77590;BME280;66746;51.328;12.332;2023-02-23T05:40:58;100033.25;;;6.95;89.52
77590;BME280;66746;51.328;12.332;2023-02-23T05:43:23;100042.16;;;6.97;89.26
77590;BME280;66746;51.328;12.332;2023-02-23T05:45:48;100036.78;;;6.97;90.42
77590;BME280;66746;51.328;12.332;2023-02-23T05:48:14;100038.47;;;6.99;90.10
77590;BME280;66746;51.328;12.332;2023-02-23T05:50:40;100046.50;;;7.01;89.62
77590;BME280;66746;51.328;12.332;2023-02-23T05:53:05;100048.38;;;6.99;89.74
77590;BME280;66746;51.328;12.332;2023-02-23T05:55:31;100021.78;;;6.87;90.09
77590;BME280;66746;51.328;12.332;2023-02-23T05:57:56;100052.00;;;6.98;90.20
77590;BME280;66746;51.328;12.332;2023-02-23T06:00:21;100045.78;;;6.96;90.40
77590;BME280;66746;51.328;12.332;2023-02-23T06:02:47;100048.63;;;6.90;89.39
77590;BME280;66746;51.328;12.332;2023-02-23T06:05:12;100055.72;;;6.94;89.91
77590;BME280;66746;51.328;12.332;2023-02-23T06:07:39;100047.69;;;6.92;90.87
77590;BME280;66746;51.328;12.332;2023-02-23T06:10:05;100064.53;;;6.99;90.07
77590;BME280;66746;51.328;12.332;2023-02-23T06:12:31;100067.28;;;6.97;90.23
77590;BME280;66746;51.328;12.332;2023-02-23T06:14:56;100069.94;;;6.99;90.64
77590;BME280;66746;51.328;12.332;2023-02-23T06:17:22;100057.50;;;6.95;90.11
77590;BME280;66746;51.328;12.332;2023-02-23T06:19:49;100068.19;;;6.98;90.22
77590;BME280;66746;51.328;12.332;2023-02-23T06:22:14;100068.19;;;6.98;90.55
77590;BME280;66746;51.328;12.332;2023-02-23T06:24:41;100061.03;;;6.97;90.61
77590;BME280;66746;51.328;12.332;2023-02-23T06:27:06;100069.88;;;7.02;90.50
77590;BME280;66746;51.328;12.332;2023-02-23T06:29:31;100066.22;;;7.04;89.96
77590;BME280;66746;51.328;12.332;2023-02-23T06:31:56;100068.06;;;7.02;90.42
77590;BME280;66746;51.328;12.332;2023-02-23T06:34:22;100078.03;;;6.99;90.02
77590;BME280;66746;51.328;12.332;2023-02-23T06:36:47;100069.88;;;7.02;89.81
77590;BME280;66746;51.328;12.332;2023-02-23T06:39:12;100070.59;;;7.07;90.15
77590;BME280;66746;51.328;12.332;2023-02-23T06:41:39;100074.16;;;7.09;90.28
77590;BME280;66746;51.328;12.332;2023-02-23T06:44:04;100080.31;;;7.14;89.73
77590;BME280;66746;51.328;12.332;2023-02-23T06:46:29;100057.13;;;7.07;89.82
77590;BME280;66746;51.328;12.332;2023-02-23T06:48:55;100076.50;;;7.21;90.08
77590;BME280;66746;51.328;12.332;2023-02-23T06:51:20;100080.03;;;7.23;90.04
77590;BME280;66746;51.328;12.332;2023-02-23T06:53:45;100072.00;;;7.22;89.64
77590;BME280;66746;51.328;12.332;2023-02-23T06:56:10;100086.94;;;7.33;90.14
77590;BME280;66746;51.328;12.332;2023-02-23T06:58:37;100079.75;;;7.34;90.02
77590;BME280;66746;51.328;12.332;2023-02-23T07:01:03;100081.25;;;7.42;89.47
77590;BME280;66746;51.328;12.332;2023-02-23T07:03:28;100088.28;;;7.49;88.96
77590;BME280;66746;51.328;12.332;2023-02-23T07:05:53;100086.47;;;7.48;89.15
77590;BME280;66746;51.328;12.332;2023-02-23T07:08:18;100095.34;;;7.53;88.55
77590;BME280;66746;51.328;12.332;2023-02-23T07:10:44;100096.91;;;7.60;88.73
77590;BME280;66746;51.328;12.332;2023-02-23T07:13:10;100103.16;;;7.62;88.57
77590;BME280;66746;51.328;12.332;2023-02-23T07:15:38;100097.69;;;7.64;88.53
77590;BME280;66746;51.328;12.332;2023-02-23T07:18:04;100099.44;;;7.66;88.11
77590;BME280;66746;51.328;12.332;2023-02-23T07:20:30;100093.25;;;7.63;88.60
77590;BME280;66746;51.328;12.332;2023-02-23T07:22:55;100085.94;;;7.66;88.20
77590;BME280;66746;51.328;12.332;2023-02-23T07:25:20;100096.56;;;7.72;88.52
77590;BME280;66746;51.328;12.332;2023-02-23T07:27:46;100100.94;;;7.76;87.84
77590;BME280;66746;51.328;12.332;2023-02-23T07:30:12;100103.63;;;7.76;87.94
77590;BME280;66746;51.328;12.332;2023-02-23T07:32:39;100106.16;;;7.82;88.14
77590;BME280;66746;51.328;12.332;2023-02-23T07:35:05;100101.47;;;7.87;87.99
77590;BME280;66746;51.328;12.332;2023-02-23T07:37:30;100118.28;;;7.97;87.88
77590;BME280;66746;51.328;12.332;2023-02-23T07:39:56;100110.16;;;7.98;88.36
77590;BME280;66746;51.328;12.332;2023-02-23T07:42:21;100113.56;;;8.03;87.46
77590;BME280;66746;51.328;12.332;2023-02-23T07:44:46;100110.78;;;8.07;87.49
77590;BME280;66746;51.328;12.332;2023-02-23T07:47:12;100116.91;;;8.12;87.42
77590;BME280;66746;51.328;12.332;2023-02-23T07:49:38;100120.34;;;8.17;87.24
77590;BME280;66746;51.328;12.332;2023-02-23T07:52:04;100113.97;;;8.19;87.16
77590;BME280;66746;51.328;12.332;2023-02-23T07:54:29;100107.69;;;8.19;87.30
77590;BME280;66746;51.328;12.332;2023-02-23T07:56:56;100101.22;;;8.24;87.20
77590;BME280;66746;51.328;12.332;2023-02-23T07:59:21;100110.09;;;8.29;86.33
77590;BME280;66746;51.328;12.332;2023-02-23T08:01:46;100112.66;;;8.34;86.72
77590;BME280;66746;51.328;12.332;2023-02-23T08:04:12;100106.22;;;8.38;86.26
77590;BME280;66746;51.328;12.332;2023-02-23T08:06:38;100114.00;;;8.47;85.65
77590;BME280;66746;51.328;12.332;2023-02-23T08:09:04;100122.81;;;8.52;86.45
77590;BME280;66746;51.328;12.332;2023-02-23T08:11:29;100125.25;;;8.61;86.38
77590;BME280;66746;51.328;12.332;2023-02-23T08:13:55;100123.09;;;8.70;86.47
77590;BME280;66746;51.328;12.332;2023-02-23T08:16:21;100120.13;;;8.78;85.88
77590;BME280;66746;51.328;12.332;2023-02-23T08:18:46;100121.69;;;8.85;86.36
77590;BME280;66746;51.328;12.332;2023-02-23T08:21:11;100122.38;;;8.91;85.80
77590;BME280;66746;51.328;12.332;2023-02-23T08:23:38;100123.97;;;8.97;85.85
77590;BME280;66746;51.328;12.332;2023-02-23T08:26:03;100127.50;;;8.99;85.44
77590;BME280;66746;51.328;12.332;2023-02-23T08:28:29;100126.31;;;9.08;84.99
77590;BME280;66746;51.328;12.332;2023-02-23T08:30:55;100108.91;;;9.15;84.96
77590;BME280;66746;51.328;12.332;2023-02-23T08:33:21;100121.16;;;9.25;84.99
77590;BME280;66746;51.328;12.332;2023-02-23T08:35:46;100097.78;;;9.24;84.16
77590;BME280;66746;51.328;12.332;2023-02-23T08:38:11;100114.50;;;9.35;83.65
77590;BME280;66746;51.328;12.332;2023-02-23T08:40:38;100114.13;;;9.45;83.90
77590;BME280;66746;51.328;12.332;2023-02-23T08:43:03;100119.41;;;9.48;83.95
77590;BME280;66746;51.328;12.332;2023-02-23T08:45:29;100115.75;;;9.49;83.63
77590;BME280;66746;51.328;12.332;2023-02-23T08:47:56;100116.31;;;9.59;83.51
77590;BME280;66746;51.328;12.332;2023-02-23T08:50:25;100123.06;;;9.70;83.12
77590;BME280;66746;51.328;12.332;2023-02-23T08:52:54;100108.19;;;9.82;82.48
77590;BME280;66746;51.328;12.332;2023-02-23T08:55:19;100087.69;;;9.75;82.10
77590;BME280;66746;51.328;12.332;2023-02-23T08:57:46;100117.03;;;10.09;82.87
77590;BME280;66746;51.328;12.332;2023-02-23T09:00:12;100125.56;;;10.23;82.40
77590;BME280;66746;51.328;12.332;2023-02-23T09:02:38;100112.41;;;10.35;82.53
77590;BME280;66746;51.328;12.332;2023-02-23T09:05:04;100115.88;;;10.39;81.17
77590;BME280;66746;51.328;12.332;2023-02-23T09:07:29;100130.34;;;10.38;80.07
77590;BME280;66746;51.328;12.332;2023-02-23T09:09:57;100126.56;;;10.42;80.73
77590;BME280;66746;51.328;12.332;2023-02-23T09:12:22;100114.09;;;10.38;79.78
77590;BME280;66746;51.328;12.332;2023-02-23T09:14:49;100132.88;;;10.64;79.67
77590;BME280;66746;51.328;12.332;2023-02-23T09:17:15;100111.84;;;10.49;78.89
77590;BME280;66746;51.328;12.332;2023-02-23T09:19:40;100118.00;;;10.74;78.98
77590;BME280;66746;51.328;12.332;2023-02-23T09:22:05;100126.84;;;10.99;78.91
77590;BME280;66746;51.328;12.332;2023-02-23T09:24:31;100117.03;;;11.17;77.78
77590;BME280;66746;51.328;12.332;2023-02-23T09:26:56;100129.31;;;11.25;77.50
77590;BME280;66746;51.328;12.332;2023-02-23T09:29:27;100121.19;;;11.25;77.77
77590;BME280;66746;51.328;12.332;2023-02-23T09:31:57;100094.66;;;11.12;77.41
77590;BME280;66746;51.328;12.332;2023-02-23T09:34:25;100137.19;;;11.31;77.90
77590;BME280;66746;51.328;12.332;2023-02-23T09:36:55;100118.59;;;11.22;76.51
77590;BME280;66746;51.328;12.332;2023-02-23T09:39:20;100126.94;;;11.38;75.55
77590;BME280;66746;51.328;12.332;2023-02-23T09:41:54;100115.50;;;11.31;76.64
77590;BME280;66746;51.328;12.332;2023-02-23T09:44:28;100124.72;;;11.27;76.36
77590;BME280;66746;51.328;12.332;2023-02-23T09:47:12;100132.03;;;11.25;76.44
77590;BME280;66746;51.328;12.332;2023-02-23T09:49:44;100132.84;;;11.27;77.21
77590;BME280;66746;51.328;12.332;2023-02-23T09:52:16;100140.59;;;11.36;77.12
77590;BME280;66746;51.328;12.332;2023-02-23T09:54:42;100137.94;;;11.35;76.98
77590;BME280;66746;51.328;12.332;2023-02-23T09:57:12;100136.94;;;11.37;77.16
77590;BME280;66746;51.328;12.332;2023-02-23T09:59:38;100123.56;;;11.33;75.90
77590;BME280;66746;51.328;12.332;2023-02-23T10:02:12;100137.06;;;11.54;76.25
77590;BME280;66746;51.328;12.332;2023-02-23T10:04:44;100134.91;;;11.61;75.49
77590;BME280;66746;51.328;12.332;2023-02-23T10:07:14;100122.88;;;11.68;74.41
77590;BME280;66746;51.328;12.332;2023-02-23T10:09:56;100142.28;;;11.79;74.12
77590;BME280;66746;51.328;12.332;2023-02-23T10:12:29;100137.81;;;11.78;74.49
77590;BME280;66746;51.328;12.332;2023-02-23T10:15:13;100145.03;;;11.98;73.59
77590;BME280;66746;51.328;12.332;2023-02-23T10:17:44;100139.44;;;12.01;73.18
77590;BME280;66746;51.328;12.332;2023-02-23T10:20:23;100138.72;;;11.97;73.13
77590;BME280;66746;51.328;12.332;2023-02-23T10:22:56;100128.28;;;12.07;73.60
77590;BME280;66746;51.328;12.332;2023-02-23T10:25:29;100115.59;;;12.07;73.20
77590;BME280;66746;51.328;12.332;2023-02-23T10:27:57;100115.22;;;12.15;72.95
77590;BME280;66746;51.328;12.332;2023-02-23T10:30:32;100113.00;;;12.23;72.76
77590;BME280;66746;51.328;12.332;2023-02-23T10:33:04;100137.72;;;12.37;72.28
77590;BME280;66746;51.328;12.332;2023-02-23T10:35:40;100100.94;;;12.28;71.84
77590;BME280;66746;51.328;12.332;2023-02-23T10:38:08;100117.41;;;12.44;71.46
77590;BME280;66746;51.328;12.332;2023-02-23T10:40:38;100133.13;;;12.56;71.09
77590;BME280;66746;51.328;12.332;2023-02-23T10:43:03;100129.28;;;12.60;71.33
77590;BME280;66746;51.328;12.332;2023-02-23T10:45:34;100133.03;;;12.58;71.67
77590;BME280;66746;51.328;12.332;2023-02-23T10:48:04;100130.44;;;12.73;71.89
77590;BME280;66746;51.328;12.332;2023-02-23T10:50:31;100119.13;;;12.82;71.10
77590;BME280;66746;51.328;12.332;2023-02-23T10:52:59;100128.63;;;12.91;70.31
77590;BME280;66746;51.328;12.332;2023-02-23T10:55:29;100127.75;;;12.90;70.16
77590;BME280;66746;51.328;12.332;2023-02-23T10:58:07;100127.69;;;12.92;70.19
77590;BME280;66746;51.328;12.332;2023-02-23T11:00:34;100126.88;;;12.90;69.61
77590;BME280;66746;51.328;12.332;2023-02-23T11:03:00;100128.97;;;13.02;69.59
77590;BME280;66746;51.328;12.332;2023-02-23T11:05:36;100128.31;;;12.97;69.65
77590;BME280;66746;51.328;12.332;2023-02-23T11:08:09;100130.41;;;12.92;70.24
77590;BME280;66746;51.328;12.332;2023-02-23T11:10:34;100123.44;;;12.86;70.78
77590;BME280;66746;51.328;12.332;2023-02-23T11:13:00;100124.97;;;12.92;71.13
77590;BME280;66746;51.328;12.332;2023-02-23T11:15:27;100115.91;;;12.91;70.29
77590;BME280;66746;51.328;12.332;2023-02-23T11:17:56;100112.47;;;12.88;69.08
77590;BME280;66746;51.328;12.332;2023-02-23T11:20:25;100109.97;;;13.00;69.33
77590;BME280;66746;51.328;12.332;2023-02-23T11:22:54;100114.84;;;13.12;70.15
77590;BME280;66746;51.328;12.332;2023-02-23T11:25:24;100111.22;;;13.12;69.92
77590;BME280;66746;51.328;12.332;2023-02-23T11:27:51;100108.28;;;13.16;69.06
77590;BME280;66746;51.328;12.332;2023-02-23T11:30:19;100094.97;;;13.10;68.63
77590;BME280;66746;51.328;12.332;2023-02-23T11:32:49;100099.78;;;13.22;68.34
77590;BME280;66746;51.328;12.332;2023-02-23T11:35:29;100093.94;;;13.30;68.85
77590;BME280;66746;51.328;12.332;2023-02-23T11:37:56;100102.19;;;13.28;68.67
77590;BME280;66746;51.328;12.332;2023-02-23T11:40:24;100088.97;;;13.21;69.14
77590;BME280;66746;51.328;12.332;2023-02-23T11:42:54;100074.00;;;13.12;68.65
77590;BME280;66746;51.328;12.332;2023-02-23T11:45:27;100092.81;;;13.17;68.95
77590;BME280;66746;51.328;12.332;2023-02-23T11:47:56;100081.94;;;13.17;69.64
77590;BME280;66746;51.328;12.332;2023-02-23T11:50:27;100080.72;;;13.22;69.69
77590;BME280;66746;51.328;12.332;2023-02-23T11:52:59;100070.00;;;13.19;68.96
77590;BME280;66746;51.328;12.332;2023-02-23T11:55:27;100084.06;;;13.27;69.08
77590;BME280;66746;51.328;12.332;2023-02-23T11:58:07;100087.53;;;13.31;68.32
77590;BME280;66746;51.328;12.332;2023-02-23T12:00:32;100064.38;;;13.22;69.76
77590;BME280;66746;51.328;12.332;2023-02-23T12:03:02;100071.44;;;13.26;68.94
77590;BME280;66746;51.328;12.332;2023-02-23T12:05:29;100067.59;;;13.30;67.53
77590;BME280;66746;51.328;12.332;2023-02-23T12:08:01;100055.34;;;13.39;67.33
77590;BME280;66746;51.328;12.332;2023-02-23T12:10:33;100080.19;;;13.66;67.58
77590;BME280;66746;51.328;12.332;2023-02-23T12:13:09;100072.63;;;13.71;66.15
77590;BME280;66746;51.328;12.332;2023-02-23T12:15:43;100062.09;;;13.48;66.30
77590;BME280;66746;51.328;12.332;2023-02-23T12:18:18;100065.28;;;13.56;67.60
77590;BME280;66746;51.328;12.332;2023-02-23T12:20:55;100046.13;;;13.24;68.07
77590;BME280;66746;51.328;12.332;2023-02-23T12:23:38;100055.09;;;13.26;68.12
77590;BME280;66746;51.328;12.332;2023-02-23T12:26:05;100073.41;;;13.40;69.36
77590;BME280;66746;51.328;12.332;2023-02-23T12:28:36;100067.50;;;13.32;68.53
77590;BME280;66746;51.328;12.332;2023-02-23T12:31:05;100072.47;;;13.24;69.56
77590;BME280;66746;51.328;12.332;2023-02-23T12:33:38;100049.00;;;13.04;69.23
77590;BME280;66746;51.328;12.332;2023-02-23T12:36:11;100060.03;;;13.01;70.14
77590;BME280;66746;51.328;12.332;2023-02-23T12:38:48;100053.31;;;12.91;69.92
77590;BME280;66746;51.328;12.332;2023-02-23T12:41:20;100031.06;;;12.83;69.73
77590;BME280;66746;51.328;12.332;2023-02-23T12:43:57;100034.97;;;12.78;69.46
77590;BME280;66746;51.328;12.332;2023-02-23T12:46:27;100051.88;;;12.84;69.82
77590;BME280;66746;51.328;12.332;2023-02-23T12:49:02;100044.97;;;12.77;70.33
77590;BME280;66746;51.328;12.332;2023-02-23T12:51:31;100061.00;;;12.83;70.88
77590;BME280;66746;51.328;12.332;2023-02-23T12:53:59;100049.53;;;12.77;70.97
77590;BME280;66746;51.328;12.332;2023-02-23T12:56:32;100064.25;;;12.73;70.63
77590;BME280;66746;51.328;12.332;2023-02-23T12:59:12;100053.38;;;12.73;70.82
77590;BME280;66746;51.328;12.332;2023-02-23T13:01:42;100044.00;;;12.61;70.74
77590;BME280;66746;51.328;12.332;2023-02-23T13:04:31;100058.75;;;12.74;70.63